Tropical Cyclones
[Index]
Main Index Home Page Stock Weather Photos Extreme Storms Discussion Storm News and Storm Chasing Reports Tropical Cyclones / Hurricanes / Typhoons Weather Data and Links Wild Fires / Bushfires Weather Observation Techniques Weather Picture Catalogue Tornado Pictures and Reports Stock Video Footage and DVDs for sale
Season 1979-1980 Tropical Cyclone SIMON Track Map
Season 1979-1980 Summaries: [BoM-AU] [JTWC-AU] [JTWC-SIO] [JTWC-SPAC] [JTWC-SH]
<<- Previous TC | BoM 1979-1980 Season | Next TC ->>

click for intensity scale information  Lat/long Grid: Show Hide

 Date Labels: Show Hide

Bureau of Meteorology Tropical Cyclone Data

Name: SIMON
Number: 605 / 197980_12

21 Feb 1980 18:00 UTC to 28 Feb 1980 12:00 UTC

    date/time    lat    long    hPa   cat  kts
1980-02-21 18   17.0   153.8   1002                     
1980-02-22 00   17.8   153.4   1000                     
1980-02-22 06   18.6   153.1    995    1                
1980-02-22 12   19.3   152.8    992    1                
1980-02-22 18   20.0   152.3    990    1                
1980-02-23 00   20.5   152.0    980    2                
1980-02-23 06   21.3   151.4    975    2                
1980-02-23 12   21.6   151.0    970    3                
1980-02-23 18   22.2   150.9    960    3                
1980-02-24 00   22.5   150.8    950    4                
1980-02-24 06   22.7   151.0    955    4                
1980-02-24 12   22.9   151.5    960    3                
1980-02-24 18   22.8   151.8    960    3                
1980-02-25 00   23.0   151.9    960    3                
1980-02-25 06   23.2   152.3    960    3                
1980-02-25 12   23.3   152.6    960    3                
1980-02-25 18   23.1   152.7    960    3                
1980-02-26 00   23.3   152.5    960    3                
1980-02-26 06   23.3   152.8    960    3                
1980-02-26 12   23.6   153.1    960    3                
1980-02-26 18   24.2   153.2    960    3                
1980-02-27 00   24.6   153.6    960    3                
1980-02-27 06   25.5   154.1    970    3                
1980-02-27 12   26.5   155.1    978    2                
1980-02-27 18   27.5   156.3    980    2                
1980-02-28 00   28.5   157.7    984    2                
1980-02-28 06   29.5   159.1    988    1                
1980-02-28 12   30.5   160.5    992    1                
Winds are 10-min average.

Tropical cyclone tracks developed by Michael Bath using data from the Bureau of Meteorology and Google Maps.


[Australian Severe Weather index] [Copyright Notice] [Email Contacts] [Search This Site] [Privacy Policy]
Document: tropical_cyclone_simon.htm Updated: 30 May 2013